Time;durP1;ratioP1;P1;durP2;ratioP2;P2;SDS_P1;SDS_P2;PMS_P1;PMS_P2;Temp;Humidity;BMP_temperature;BMP_pressure;BME280_temperature;BME280_humidity;BME280_pressure;Samples;Min_cycle;Max_cycle;Signal;HPM_P1;HPM_P2
2023/02/11 00:00:13;;;;;;;6.07;2.25;;;;;;;8.18;100.00;102349.53;5032985;28;20041;-78
2023/02/11 00:02:39;;;;;;;5.53;1.83;;;;;;;8.14;100.00;102358.50;5016426;28;20036;-82
2023/02/11 00:05:05;;;;;;;3.35;1.50;;;;;;;8.16;100.00;102368.97;5031504;28;20037;-82
2023/02/11 00:07:32;;;;;;;4.57;1.83;;;;;;;8.17;100.00;102375.94;5033204;28;20057;-84
2023/02/11 00:09:59;;;;;;;7.30;2.10;;;;;;;8.18;100.00;102375.88;5017755;28;20388;-81
2023/02/11 00:12:24;;;;;;;5.90;1.90;;;;;;;8.21;100.00;102374.84;5031396;28;20044;-82
2023/02/11 00:14:51;;;;;;;8.60;2.58;;;;;;;8.19;100.00;102369.66;5001349;28;20032;-81
2023/02/11 00:17:17;;;;;;;3.85;1.90;;;;;;;8.20;100.00;102370.53;5015195;28;20447;-82
2023/02/11 00:19:43;;;;;;;5.68;2.00;;;;;;;8.18;100.00;102356.56;5049628;28;20029;-82
2023/02/11 00:22:08;;;;;;;6.82;2.83;;;;;;;8.19;100.00;102358.25;5033205;28;20091;-83
2023/02/11 00:24:35;;;;;;;4.53;1.92;;;;;;;8.20;100.00;102354.72;5033151;28;20084;-84
2023/02/11 00:27:01;;;;;;;4.15;2.05;;;;;;;8.20;100.00;102359.97;5001013;28;20116;-84
2023/02/11 00:29:27;;;;;;;6.82;1.85;;;;;;;8.16;100.00;102350.53;5015056;28;20037;-84
2023/02/11 00:31:53;;;;;;;12.25;2.25;;;;;;;8.13;100.00;102350.69;5013260;28;20060;-83
2023/02/11 00:34:19;;;;;;;7.95;2.40;;;;;;;8.10;100.00;102356.13;5029029;28;20115;-83
2023/02/11 00:36:45;;;;;;;7.60;2.25;;;;;;;8.08;100.00;102350.94;5049480;28;20045;-84
2023/02/11 00:39:10;;;;;;;5.13;1.73;;;;;;;8.09;100.00;102352.63;5011611;28;20044;-84
2023/02/11 00:41:36;;;;;;;4.35;2.08;;;;;;;8.14;100.00;102357.63;5032675;28;20037;-83
2023/02/11 00:44:02;;;;;;;8.18;1.80;;;;;;;8.14;100.00;102352.38;5012596;28;20049;-83
2023/02/11 00:46:28;;;;;;;4.88;1.60;;;;;;;8.15;100.00;102362.00;5049592;28;20469;-83
2023/02/11 00:48:56;;;;;;;5.65;1.95;;;;;;;8.16;100.00;102361.06;5031760;28;20033;-82
2023/02/11 00:51:23;;;;;;;4.32;1.83;;;;;;;8.13;100.00;102353.31;5017793;28;20167;-82
2023/02/11 00:53:49;;;;;;;5.03;1.85;;;;;;;8.09;100.00;102352.63;5040179;28;20035;-82
2023/02/11 00:56:15;;;;;;;4.63;1.65;;;;;;;8.09;100.00;102347.34;5026177;28;20098;-85
2023/02/11 00:58:41;;;;;;;7.57;1.55;;;;;;;8.06;100.00;102336.97;5022235;28;20037;-81
2023/02/11 01:01:07;;;;;;;9.15;1.98;;;;;;;8.01;100.00;102339.03;5034012;28;20039;-81
2023/02/11 01:03:33;;;;;;;7.47;1.90;;;;;;;8.01;100.00;102344.28;5001033;28;20045;-81
2023/02/11 01:05:59;;;;;;;8.48;1.70;;;;;;;8.03;100.00;102342.41;5010707;28;20045;-81
2023/02/11 01:08:25;;;;;;;6.95;1.90;;;;;;;8.04;100.00;102346.75;5047304;28;20499;-81
2023/02/11 01:10:59;;;;;;;13.02;1.95;;;;;;;8.02;100.00;102340.72;5032794;28;20033;-81
2023/02/11 01:13:26;;;;;;;4.85;1.60;;;;;;;7.97;100.00;102350.63;5031884;28;20153;-81
2023/02/11 01:15:54;;;;;;;3.83;1.60;;;;;;;7.96;100.00;102348.94;5017517;28;20061;-81
2023/02/11 01:18:20;;;;;;;6.30;1.90;;;;;;;7.97;100.00;102358.53;5013660;28;20204;-81
2023/02/11 01:20:47;;;;;;;9.15;1.80;;;;;;;7.95;100.00;102358.59;5015013;28;20064;-82
2023/02/11 01:23:13;;;;;;;7.35;1.52;;;;;;;7.93;100.00;102368.41;5035525;28;20084;-82
2023/02/11 01:25:39;;;;;;;8.50;1.83;;;;;;;7.90;100.00;102365.91;5030985;28;20066;-81
2023/02/11 01:28:05;;;;;;;4.55;1.90;;;;;;;7.86;100.00;102357.31;5019979;28;20041;-81
2023/02/11 01:30:30;;;;;;;9.30;1.73;;;;;;;7.81;100.00;102348.78;5047555;28;20036;-81
2023/02/11 01:32:56;;;;;;;7.00;1.63;;;;;;;7.78;100.00;102347.19;5031155;28;20113;-83
2023/02/11 01:35:22;;;;;;;6.28;1.48;;;;;;;7.73;100.00;102335.16;5016177;28;20481;-83
2023/02/11 01:37:49;;;;;;;7.90;1.48;;;;;;;7.71;100.00;102331.78;5032075;28;20033;-82
2023/02/11 01:40:16;;;;;;;4.65;1.60;;;;;;;7.66;100.00;102324.94;5001675;28;20059;-83
2023/02/11 01:42:43;;;;;;;3.67;1.50;;;;;;;7.62;100.00;102326.06;5010948;28;20556;-82
2023/02/11 01:45:43;;;;;;;6.38;1.30;;;;;;;7.62;100.00;102323.41;5012803;28;20041;-83
2023/02/11 01:48:19;;;;;;;7.93;1.42;;;;;;;7.58;100.00;102311.31;5048094;28;20039;-83
2023/02/11 01:50:51;;;;;;;5.45;1.50;;;;;;;7.57;100.00;102315.75;5000329;28;20040;-83
2023/02/11 01:58:52;;;;;;;2.50;1.30;;;;;;;7.65;100.00;102320.63;5030712;28;20025;-82
2023/02/11 02:01:24;;;;;;;4.30;1.15;;;;;;;7.69;100.00;102313.44;5029861;28;20107;-83
2023/02/11 02:03:52;;;;;;;3.53;1.27;;;;;;;7.71;100.00;102318.63;5027881;28;20029;-82
2023/02/11 02:06:32;;;;;;;3.10;1.27;;;;;;;7.73;100.00;102320.22;5049415;28;20431;-81
2023/02/11 02:09:08;;;;;;;2.42;1.33;;;;;;;7.74;100.00;102321.94;4993553;28;20041;-81
2023/02/11 02:11:35;;;;;;;7.72;1.52;;;;;;;7.72;100.00;102313.28;5016385;28;20033;-87
2023/02/11 02:14:02;;;;;;;5.95;1.52;;;;;;;7.72;100.00;102326.44;5030521;28;20930;-81
2023/02/11 02:16:34;;;;;;;3.28;1.35;;;;;;;7.74;100.00;102316.66;5032560;28;20044;-82
2023/02/11 02:19:07;;;;;;;5.18;1.65;;;;;;;7.73;100.00;102312.34;5016637;28;20174;-82
2023/02/11 02:22:12;;;;;;;3.75;1.48;;;;;;;7.73;100.00;102314.09;5027903;28;20043;-83
2023/02/11 02:24:59;;;;;;;2.63;1.48;;;;;;;7.69;100.00;102308.19;5044253;28;20067;-84
2023/02/11 02:27:52;;;;;;;3.63;1.35;;;;;;;7.66;100.00;102317.06;5032350;28;20040;-84
2023/02/11 02:30:36;;;;;;;8.27;1.63;;;;;;;7.65;100.00;102318.00;5029180;28;20119;-85
2023/02/11 02:33:27;;;;;;;3.25;1.30;;;;;;;7.64;100.00;102325.97;5008141;28;20151;-85
2023/02/11 02:35:59;;;;;;;4.97;1.00;;;;;;;7.66;100.00;102324.94;5043079;28;20058;-85
2023/02/11 02:38:34;;;;;;;5.55;1.30;;;;;;;7.65;100.00;102328.53;4993380;28;20370;-83
2023/02/11 02:41:14;;;;;;;3.60;1.07;;;;;;;7.66;100.00;102326.75;5024922;28;20033;-83
2023/02/11 02:43:44;;;;;;;9.25;1.60;;;;;;;7.66;100.00;102324.13;4993554;28;20481;-83
2023/02/11 02:46:16;;;;;;;6.20;1.20;;;;;;;7.66;100.00;102330.22;5030231;28;20511;-83
2023/02/11 02:48:42;;;;;;;3.80;1.50;;;;;;;7.63;100.00;102330.38;5030849;28;20112;-83
2023/02/11 02:51:37;;;;;;;7.25;1.23;;;;;;;7.68;100.00;102331.00;5015393;28;20033;-83
2023/02/11 02:54:06;;;;;;;3.95;1.10;;;;;;;7.69;100.00;102329.22;5047258;28;20175;-83
2023/02/11 02:56:50;;;;;;;4.28;0.90;;;;;;;7.68;100.00;102323.09;5011425;28;20440;-83
2023/02/11 02:59:57;;;;;;;3.67;1.05;;;;;;;7.69;100.00;102327.44;5000376;28;20497;-83
2023/02/11 03:02:33;;;;;;;5.97;1.10;;;;;;;7.68;100.00;102319.63;5014128;28;20447;-83
2023/02/11 03:05:17;;;;;;;1.77;1.05;;;;;;;7.69;100.00;102324.78;4996670;28;20446;-83
2023/02/11 03:07:46;;;;;;;6.85;1.00;;;;;;;7.66;100.00;102309.16;4995395;28;20044;-83
2023/02/11 03:10:33;;;;;;;1.45;0.90;;;;;;;7.66;100.00;102303.91;5015356;28;20056;-83
2023/02/11 03:13:01;;;;;;;4.50;1.20;;;;;;;7.67;100.00;102312.66;5048602;28;20089;-83
2023/02/11 03:15:31;;;;;;;5.82;1.00;;;;;;;7.69;100.00;102322.16;5010954;28;20049;-83
2023/02/11 03:18:01;;;;;;;3.30;1.00;;;;;;;7.69;100.00;102308.19;5028507;28;20051;-83
2023/02/11 03:20:31;;;;;;;5.50;1.45;;;;;;;7.70;100.00;102312.50;5009756;28;20033;-83
2023/02/11 03:23:01;;;;;;;3.85;1.00;;;;;;;7.72;100.00;102315.91;5026284;28;20030;-83
2023/02/11 03:25:33;;;;;;;6.65;1.00;;;;;;;7.72;100.00;102310.66;5005510;28;20050;-83
2023/02/11 03:28:27;;;;;;;2.25;0.80;;;;;;;7.72;100.00;102294.84;5001850;28;20528;-83
2023/02/11 03:31:05;;;;;;;2.17;0.80;;;;;;;7.72;100.00;102296.63;5008271;28;20030;-83
2023/02/11 03:33:37;;;;;;;3.05;0.75;;;;;;;7.74;100.00;102297.41;4991587;28;20034;-83
2023/02/11 03:36:09;;;;;;;4.00;0.90;;;;;;;7.73;100.00;102293.06;4982369;28;20046;-83
2023/02/11 03:38:41;;;;;;;2.25;0.90;;;;;;;7.74;100.00;102290.34;4997034;28;20425;-83
2023/02/11 03:41:08;;;;;;;3.53;0.70;;;;;;;7.74;100.00;102295.59;5004005;28;20058;-83
2023/02/11 03:43:41;;;;;;;7.30;1.00;;;;;;;7.74;100.00;102279.81;5021455;28;20451;-83
2023/02/11 03:46:10;;;;;;;2.92;0.90;;;;;;;7.74;100.00;102292.97;5001673;28;20076;-83
2023/02/11 03:48:41;;;;;;;3.08;1.08;;;;;;;7.74;100.00;102292.13;5006561;28;20034;-83
2023/02/11 03:51:09;;;;;;;1.92;0.80;;;;;;;7.75;100.00;102291.19;4991653;28;20033;-83
2023/02/11 03:53:37;;;;;;;2.47;1.00;;;;;;;7.72;100.00;102286.09;5006894;28;20113;-83
2023/02/11 03:56:08;;;;;;;6.35;1.23;;;;;;;7.74;100.00;102284.25;4984531;28;20040;-83
2023/02/11 03:58:34;;;;;;;4.15;0.98;;;;;;;7.68;100.00;102281.00;4995623;28;20058;-83
2023/02/11 04:01:01;;;;;;;8.95;1.17;;;;;;;7.69;100.00;102280.06;5012821;28;20397;-83
2023/02/11 04:03:27;;;;;;;4.90;0.85;;;;;;;7.67;100.00;102274.03;4997867;28;20113;-83
2023/02/11 04:05:53;;;;;;;3.25;0.98;;;;;;;7.65;100.00;102275.03;4983581;28;20149;-83
2023/02/11 04:08:19;;;;;;;2.03;0.85;;;;;;;7.67;100.00;102276.66;5013843;28;20026;-83
2023/02/11 04:10:45;;;;;;;2.47;0.70;;;;;;;7.62;100.00;102283.94;5009560;28;20038;-83
2023/02/11 04:13:11;;;;;;;7.43;1.25;;;;;;;7.64;100.00;102286.50;5011635;28;20045;-83
2023/02/11 04:15:37;;;;;;;2.05;0.70;;;;;;;7.65;100.00;102280.28;5012277;28;20049;-83
2023/02/11 04:18:03;;;;;;;2.33;0.60;;;;;;;7.64;100.00;102287.34;5014529;28;20049;-83
2023/02/11 04:20:29;;;;;;;2.97;1.42;;;;;;;7.63;100.00;102292.69;5012387;28;20113;-83
2023/02/11 04:22:54;;;;;;;1.95;0.68;;;;;;;7.64;100.00;102297.88;4998185;28;20568;-83
2023/02/11 04:25:20;;;;;;;3.17;0.70;;;;;;;7.64;100.00;102289.13;5011303;28;20029;-83
2023/02/11 04:27:46;;;;;;;2.95;0.85;;;;;;;7.65;100.00;102296.09;4996472;28;20045;-83
2023/02/11 04:30:12;;;;;;;5.28;1.25;;;;;;;7.66;100.00;102296.00;5011802;28;20045;-83
2023/02/11 04:32:38;;;;;;;7.05;0.60;;;;;;;7.66;100.00;102296.00;5011332;28;20030;-79
2023/02/11 04:35:05;;;;;;;6.43;0.90;;;;;;;7.68;100.00;102295.94;5013010;28;20438;-79
2023/02/11 04:37:31;;;;;;;6.43;1.05;;;;;;;7.65;100.00;102293.44;5009945;28;20092;-83
2023/02/11 04:39:56;;;;;;;2.65;1.00;;;;;;;7.66;100.00;102287.28;5007603;28;20029;-83
2023/02/11 04:42:22;;;;;;;3.17;0.40;;;;;;;7.61;100.00;102276.13;4980089;28;20486;-83
2023/02/11 04:44:48;;;;;;;4.72;1.00;;;;;;;7.59;100.00;102280.59;5010174;28;20037;-83
2023/02/11 04:47:14;;;;;;;7.45;1.00;;;;;;;7.55;100.00;102282.53;5005822;28;20045;-82
2023/02/11 04:49:40;;;;;;;6.80;1.08;;;;;;;7.53;100.00;102279.16;5010837;28;20029;-82
2023/02/11 04:52:07;;;;;;;3.95;0.90;;;;;;;7.49;100.00;102281.09;5009392;28;20038;-83
2023/02/11 04:54:33;;;;;;;6.47;0.80;;;;;;;7.48;100.00;102289.06;5007762;28;20068;-83
2023/02/11 04:56:59;;;;;;;4.82;0.80;;;;;;;7.48;100.00;102279.41;5006704;28;20070;-83
2023/02/11 04:59:24;;;;;;;5.78;0.80;;;;;;;7.48;100.00;102274.13;5009160;28;20037;-83
2023/02/11 05:01:50;;;;;;;3.97;0.70;;;;;;;7.54;100.00;102289.59;5009349;28;20435;-83
2023/02/11 05:04:16;;;;;;;1.77;0.60;;;;;;;7.56;100.00;102286.91;5009412;28;20033;-83
2023/02/11 05:06:41;;;;;;;2.67;0.47;;;;;;;7.57;100.00;102286.81;5009405;28;20646;-83
2023/02/11 05:09:10;;;;;;;5.75;0.50;;;;;;;7.62;100.00;102289.22;4992040;28;20120;-83
2023/02/11 05:11:35;;;;;;;4.53;0.70;;;;;;;7.64;100.00;102294.38;5005371;28;20041;-83
2023/02/11 05:14:01;;;;;;;5.85;1.48;;;;;;;7.63;100.00;102292.69;5003132;28;20034;-83
2023/02/11 05:16:27;;;;;;;5.38;0.93;;;;;;;7.64;100.00;102290.00;5024626;28;20084;-83
2023/02/11 05:18:54;;;;;;;5.47;0.43;;;;;;;7.65;100.00;102293.44;5022124;28;20041;-83
2023/02/11 05:21:20;;;;;;;4.03;0.60;;;;;;;7.65;100.00;102296.09;5001072;28;20034;-82
2023/02/11 05:23:46;;;;;;;3.88;0.75;;;;;;;7.65;100.00;102291.69;5024472;28;20065;-83
2023/02/11 05:26:12;;;;;;;3.03;0.60;;;;;;;7.67;100.00;102287.19;4992739;28;20811;-83
2023/02/11 05:28:38;;;;;;;4.80;0.77;;;;;;;7.65;100.00;102282.91;5009679;28;20036;-83
2023/02/11 05:31:04;;;;;;;4.35;0.75;;;;;;;7.65;100.00;102290.81;5005359;28;20034;-83
2023/02/11 05:33:30;;;;;;;4.93;1.05;;;;;;;7.63;100.00;102282.16;5008634;28;20501;-83
2023/02/11 05:36:05;;;;;;;11.35;1.15;;;;;;;7.63;100.00;102283.00;5005914;28;20119;-83
2023/02/11 05:38:32;;;;;;;1.98;0.77;;;;;;;7.54;100.00;102286.09;5008282;28;20474;-83
2023/02/11 05:40:57;;;;;;;2.55;0.80;;;;;;;7.49;100.00;102291.59;5008119;28;20041;-83
2023/02/11 05:43:23;;;;;;;5.53;1.08;;;;;;;7.46;100.00;102283.88;5008572;28;20033;-83
2023/02/11 05:45:49;;;;;;;4.43;0.80;;;;;;;7.42;100.00;102291.06;5009520;28;20525;-83
2023/02/11 05:48:15;;;;;;;5.78;1.23;;;;;;;7.44;100.00;102290.97;5000295;28;20038;-83
2023/02/11 05:50:41;;;;;;;2.92;1.00;;;;;;;7.47;100.00;102290.81;5007511;28;20041;-83
2023/02/11 05:53:07;;;;;;;6.15;0.90;;;;;;;7.50;100.00;102293.31;5007648;28;20029;-83
2023/02/11 05:55:33;;;;;;;4.07;0.80;;;;;;;7.52;100.00;102296.72;5006640;28;20049;-83
2023/02/11 05:57:58;;;;;;;5.53;1.02;;;;;;;7.54;100.00;102299.28;5015560;28;20080;-83
2023/02/11 06:00:24;;;;;;;2.53;1.00;;;;;;;7.56;100.00;102303.50;5007807;28;20033;-83
2023/02/11 06:02:50;;;;;;;4.18;1.10;;;;;;;7.58;100.00;102303.44;5008130;28;20038;-83
2023/02/11 06:05:16;;;;;;;3.15;0.80;;;;;;;7.61;100.00;102302.44;5007788;28;20534;-83
2023/02/11 06:07:42;;;;;;;5.65;1.08;;;;;;;7.63;100.00;102305.88;5018065;28;20402;-83
2023/02/11 06:10:08;;;;;;;4.75;1.42;;;;;;;7.63;100.00;102311.13;5008258;28;20034;-83
2023/02/11 06:12:36;;;;;;;4.45;1.05;;;;;;;7.65;100.00;102307.47;5007974;28;20434;-83
2023/02/11 06:15:01;;;;;;;2.38;0.80;;;;;;;7.65;100.00;102314.50;4991719;28;20517;-83
2023/02/11 06:17:31;;;;;;;6.10;1.20;;;;;;;7.67;100.00;102317.91;5009442;28;20061;-83
2023/02/11 06:19:57;;;;;;;3.10;0.85;;;;;;;7.69;100.00;102316.91;4990150;28;20152;-83
2023/02/11 06:22:23;;;;;;;2.50;0.70;;;;;;;7.70;100.00;102307.22;5006135;28;20042;-83
2023/02/11 06:24:48;;;;;;;2.15;0.90;;;;;;;7.71;100.00;102306.28;5008067;28;20038;-83
2023/02/11 06:27:14;;;;;;;5.28;0.95;;;;;;;7.72;100.00;102307.16;5008679;28;20037;-83
2023/02/11 06:29:40;;;;;;;10.48;1.40;;;;;;;7.73;100.00;102311.47;5009379;28;20398;-83
2023/02/11 06:32:06;;;;;;;4.20;1.02;;;;;;;7.71;100.00;102306.28;5002428;28;20088;-83
2023/02/11 06:34:32;;;;;;;2.58;1.00;;;;;;;7.71;100.00;102311.56;4990834;28;20054;-83
2023/02/11 06:36:57;;;;;;;4.15;1.10;;;;;;;7.71;100.00;102303.66;5012747;28;20033;-83
2023/02/11 06:39:23;;;;;;;8.10;1.15;;;;;;;7.70;100.00;102309.88;5008686;28;20029;-83
2023/02/11 06:41:49;;;;;;;5.20;0.90;;;;;;;7.69;100.00;102306.38;5006042;28;20036;-83
2023/02/11 06:44:15;;;;;;;4.43;1.13;;;;;;;7.68;100.00;102304.69;5006011;28;20052;-79
2023/02/11 06:46:40;;;;;;;5.32;1.10;;;;;;;7.68;100.00;102309.09;4999980;28;20038;-79
2023/02/11 06:49:06;;;;;;;2.42;0.77;;;;;;;7.66;100.00;102305.69;5025147;28;20046;-83
2023/02/11 06:51:32;;;;;;;3.17;0.93;;;;;;;7.63;100.00;102300.59;5007644;28;20033;-83
2023/02/11 06:53:57;;;;;;;4.70;0.93;;;;;;;7.62;100.00;102312.91;5008761;28;20033;-78
2023/02/11 06:56:27;;;;;;;3.83;0.93;;;;;;;7.64;100.00;102318.09;5005299;28;20127;-79
2023/02/11 06:58:54;;;;;;;5.18;1.30;;;;;;;7.63;100.00;102314.59;4989875;28;20041;-82
2023/02/11 07:01:21;;;;;;;2.35;0.93;;;;;;;7.62;100.00;102317.28;4966098;28;20098;-83
2023/02/11 07:03:47;;;;;;;5.30;1.05;;;;;;;7.59;100.00;102320.94;5009767;28;20585;-83
2023/02/11 07:06:16;;;;;;;9.38;2.03;;;;;;;7.55;100.00;102330.78;5001797;28;20117;-83
2023/02/11 07:08:42;;;;;;;8.02;1.30;;;;;;;7.51;100.00;102326.59;5009676;28;20042;-82
2023/02/11 07:11:13;;;;;;;5.90;1.17;;;;;;;7.53;100.00;102332.63;4975796;28;20030;-82
2023/02/11 07:13:39;;;;;;;4.65;1.13;;;;;;;7.48;100.00;102329.38;4992694;28;20037;-79
2023/02/11 07:16:07;;;;;;;7.07;1.45;;;;;;;7.51;100.00;102331.00;5010276;28;20034;-78
2023/02/11 07:18:33;;;;;;;2.53;0.80;;;;;;;7.52;100.00;102328.28;5009691;28;20758;-79
2023/02/11 07:21:02;;;;;;;6.40;0.98;;;;;;;7.50;100.00;102319.63;5002940;28;20161;-79
2023/02/11 07:23:28;;;;;;;3.58;0.90;;;;;;;7.50;100.00;102324.88;5039065;28;20041;-83
2023/02/11 07:25:54;;;;;;;4.35;1.10;;;;;;;7.45;100.00;102330.38;5032435;28;20361;-82
2023/02/11 07:28:19;;;;;;;4.63;0.80;;;;;;;7.42;100.00;102330.53;5023458;28;20428;-83
2023/02/11 07:30:45;;;;;;;3.33;0.80;;;;;;;7.41;100.00;102330.59;5036743;28;20448;-83
2023/02/11 07:33:11;;;;;;;4.45;1.20;;;;;;;7.40;100.00;102326.28;5038244;28;20028;-83
2023/02/11 07:35:36;;;;;;;5.75;0.80;;;;;;;7.40;100.00;102326.28;5018027;28;20046;-83
2023/02/11 07:38:02;;;;;;;3.40;0.90;;;;;;;7.41;100.00;102341.13;5036830;28;20095;-78
2023/02/11 07:40:30;;;;;;;5.43;1.15;;;;;;;7.38;100.00;102336.03;5032799;28;20029;-79
2023/02/11 07:42:56;;;;;;;7.22;1.73;;;;;;;7.37;100.00;102339.59;5029460;28;20058;-83
2023/02/11 07:45:23;;;;;;;6.07;0.95;;;;;;;7.32;100.00;102340.69;5022206;28;20029;-83
2023/02/11 07:47:49;;;;;;;7.07;0.82;;;;;;;7.30;100.00;102345.16;5010180;28;20550;-83
2023/02/11 07:50:16;;;;;;;6.20;0.82;;;;;;;7.29;100.00;102346.06;5033673;28;20044;-83
2023/02/11 07:52:42;;;;;;;7.07;0.95;;;;;;;7.25;100.00;102339.25;5033052;28;20055;-83
2023/02/11 07:55:08;;;;;;;4.32;1.08;;;;;;;7.25;100.00;102347.16;5032386;28;20025;-82
2023/02/11 07:57:35;;;;;;;5.57;1.00;;;;;;;7.25;100.00;102344.53;5016864;28;20099;-83
2023/02/11 08:00:03;;;;;;;4.75;1.55;;;;;;;7.28;100.00;102333.00;5017710;28;20033;-83
2023/02/11 08:02:36;;;;;;;12.50;1.55;;;;;;;7.25;100.00;102343.66;5030736;28;20035;-83
2023/02/11 08:05:02;;;;;;;11.85;1.00;;;;;;;7.25;100.00;102348.91;4997692;28;20037;-82
2023/02/11 08:07:28;;;;;;;6.55;1.00;;;;;;;7.25;100.00;102349.78;5028710;28;20025;-83
2023/02/11 08:09:54;;;;;;;11.52;0.80;;;;;;;7.26;100.00;102346.22;5011072;28;20101;-83
2023/02/11 08:12:20;;;;;;;6.40;0.93;;;;;;;7.25;100.00;102354.19;5030717;28;20041;-83
2023/02/11 08:14:46;;;;;;;5.65;0.85;;;;;;;7.27;100.00;102347.94;5044564;28;20017;-83
2023/02/11 08:17:11;;;;;;;5.25;0.68;;;;;;;7.28;100.00;102348.78;4997814;28;20663;-82
2023/02/11 08:19:38;;;;;;;7.82;1.10;;;;;;;7.28;100.00;102352.25;5051021;28;20037;-79
2023/02/11 08:22:03;;;;;;;3.38;0.70;;;;;;;7.29;100.00;102359.22;5032684;28;20040;-79
2023/02/11 08:24:29;;;;;;;7.32;1.42;;;;;;;7.31;100.00;102357.38;5029919;28;20029;-83
2023/02/11 08:26:55;;;;;;;9.95;1.27;;;;;;;7.34;100.00;102355.53;5029981;28;20485;-83
2023/02/11 08:29:21;;;;;;;5.10;0.95;;;;;;;7.36;100.00;102357.16;5028209;28;20061;-83
2023/02/11 08:31:47;;;;;;;6.97;0.82;;;;;;;7.40;100.00;102363.13;5029582;28;20043;-83
2023/02/11 08:34:17;;;;;;;7.20;1.23;;;;;;;7.40;100.00;102360.47;5018344;28;20028;-83
2023/02/11 08:36:43;;;;;;;7.82;0.80;;;;;;;7.42;100.00;102367.38;5036268;28;20196;-83
2023/02/11 08:39:18;;;;;;;9.05;1.48;;;;;;;7.47;100.00;102361.88;5048704;28;20568;-83
2023/02/11 08:41:45;;;;;;;2.90;1.33;;;;;;;7.46;100.00;102362.81;4992000;28;20037;-82
2023/02/11 08:44:12;;;;;;;5.28;0.95;;;;;;;7.46;100.00;102365.44;5027329;28;20025;-83
2023/02/11 08:46:37;;;;;;;5.45;1.05;;;;;;;7.47;100.00;102361.88;5048873;28;20033;-82
2023/02/11 08:49:03;;;;;;;2.83;0.50;;;;;;;7.49;100.00;102364.44;5029294;28;20041;-83
2023/02/11 08:51:30;;;;;;;3.88;1.00;;;;;;;7.48;100.00;102373.25;5048682;28;20032;-83
2023/02/11 08:53:56;;;;;;;9.30;1.15;;;;;;;7.47;100.00;102368.94;5046322;28;20058;-83
2023/02/11 08:56:22;;;;;;;6.07;0.77;;;;;;;7.47;100.00;102361.88;5030690;28;20048;-83
2023/02/11 08:58:49;;;;;;;4.07;1.00;;;;;;;7.48;100.00;102371.50;5015638;28;20033;-83
2023/02/11 09:01:20;;;;;;;4.18;0.70;;;;;;;7.52;100.00;102377.44;5050388;28;20029;-83
2023/02/11 09:03:46;;;;;;;5.32;1.27;;;;;;;7.53;100.00;102373.88;5031474;28;20057;-82
2023/02/11 09:06:13;;;;;;;5.18;1.08;;;;;;;7.54;100.00;102376.44;5026431;28;20044;-83
2023/02/11 09:08:43;;;;;;;5.45;2.70;;;;;;;7.58;100.00;102374.50;5033792;28;20060;-83
2023/02/11 09:11:09;;;;;;;7.10;1.13;;;;;;;7.60;100.00;102374.44;5047664;28;20041;-83
2023/02/11 09:13:36;;;;;;;8.18;1.45;;;;;;;7.62;100.00;102367.31;5028793;28;20085;-78
2023/02/11 09:16:04;;;;;;;7.78;0.90;;;;;;;7.66;100.00;102382.03;5050231;28;20095;-79
2023/02/11 09:18:31;;;;;;;7.45;1.23;;;;;;;7.66;100.00;102382.03;5049312;28;20119;-82
2023/02/11 09:21:07;;;;;;;5.22;1.17;;;;;;;7.72;100.00;102384.34;5022351;28;20118;-83
2023/02/11 09:23:34;;;;;;;4.93;0.65;;;;;;;7.73;100.00;102383.41;5048039;28;20072;-83
2023/02/11 09:26:22;;;;;;;7.60;1.02;;;;;;;7.75;100.00;102381.56;5005175;28;20504;-83
2023/02/11 09:28:48;;;;;;;6.07;1.27;;;;;;;7.73;100.00;102382.53;5024225;28;20033;-81
2023/02/11 09:31:18;;;;;;;7.90;1.25;;;;;;;7.77;100.00;102382.31;5017978;28;20408;-87
2023/02/11 09:33:49;;;;;;;6.88;0.80;;;;;;;7.81;100.00;102393.56;5035400;28;20485;-86
2023/02/11 09:36:20;;;;;;;9.65;1.48;;;;;;;7.84;100.00;102385.50;5015742;28;20385;-87
2023/02/11 09:38:46;;;;;;;6.18;0.93;;;;;;;7.83;100.00;102386.44;5046521;28;20437;-87
2023/02/11 09:41:25;;;;;;;4.35;0.80;;;;;;;7.89;100.00;102386.13;5038557;28;20032;-86
2023/02/11 09:43:57;;;;;;;8.77;1.20;;;;;;;7.91;100.00;102384.28;5032664;28;20119;-87
2023/02/11 09:46:26;;;;;;;6.18;1.27;;;;;;;7.92;100.00;102390.38;5014209;28;20116;-87
2023/02/11 09:48:54;;;;;;;7.13;0.82;;;;;;;7.95;100.00;102387.56;5031554;28;20062;-88
2023/02/11 09:52:06;;;;;;;7.30;1.20;;;;;;;7.94;100.00;102389.38;5017978;28;20083;-87
2023/02/11 09:54:52;;;;;;;5.60;1.10;;;;;;;7.98;100.00;102399.75;4953013;28;20530;-87
2023/02/11 09:57:18;;;;;;;;;;;;;;;7.94;100.00;102388.53;5027927;28;20094;-88
2023/02/11 09:59:44;;;;;;;6.63;1.03;;;;;;;7.96;100.00;102393.69;5030749;28;20368;-87
2023/02/11 10:02:20;;;;;;;5.68;0.90;;;;;;;8.02;100.00;102394.25;4997727;28;20473;-87
2023/02/11 10:05:12;;;;;;;6.50;1.05;;;;;;;8.05;100.00;102395.84;5014837;28;20389;-87
2023/02/11 10:08:08;;;;;;;7.38;1.58;;;;;;;8.11;100.00;102397.31;5029412;28;20064;-87
2023/02/11 10:10:43;;;;;;;6.72;1.10;;;;;;;8.14;100.00;102399.78;5047942;28;20036;-88
2023/02/11 10:13:24;;;;;;;6.60;0.63;;;;;;;8.17;100.00;102404.94;5017748;28;20055;-84
2023/02/11 10:15:55;;;;;;;7.93;1.15;;;;;;;8.16;100.00;102398.78;5049880;28;20048;-80
2023/02/11 10:18:45;;;;;;;7.97;1.20;;;;;;;8.27;100.00;102395.59;5004943;28;20460;-87
2023/02/11 10:21:31;;;;;;;11.63;1.02;;;;;;;8.36;100.00;102394.25;5049543;28;20040;-88
2023/02/11 10:24:02;;;;;;;4.53;1.42;;;;;;;8.41;100.00;102388.72;5025534;28;20056;-88
2023/02/11 10:26:30;;;;;;;7.75;0.88;;;;;;;8.48;100.00;102390.13;5013876;28;20414;-89
2023/02/11 10:29:03;;;;;;;9.77;1.60;;;;;;;8.52;100.00;102388.19;5032149;28;20067;-88
2023/02/11 10:31:37;;;;;;;4.85;1.63;;;;;;;8.58;100.00;102387.88;5051397;28;20032;-88
2023/02/11 10:34:09;;;;;;;3.47;1.35;;;;;;;8.63;100.00;102393.72;5048746;28;20051;-87
2023/02/11 10:36:37;;;;;;;8.48;0.88;;;;;;;8.75;100.00;102386.09;5047649;28;20044;-89
2023/02/11 10:39:19;;;;;;;4.28;0.80;;;;;;;8.88;100.00;102383.63;5033015;28;20090;-88
2023/02/11 10:41:45;;;;;;;4.50;1.10;;;;;;;8.92;100.00;102380.75;5009692;28;20025;-87
2023/02/11 10:44:32;;;;;;;6.05;1.15;;;;;;;9.06;100.00;102377.34;5033002;28;20111;-88
2023/02/11 10:47:17;;;;;;;2.33;0.77;;;;;;;9.14;100.00;102378.69;5029283;28;20493;-88
2023/02/11 10:49:45;;;;;;;5.88;0.90;;;;;;;9.20;100.00;102388.03;5015220;28;20215;-88
2023/02/11 10:52:17;;;;;;;4.00;0.95;;;;;;;9.27;100.00;102384.97;5047764;28;20033;-88
2023/02/11 10:55:09;;;;;;;8.95;1.17;;;;;;;9.26;100.00;102388.56;5003648;28;20053;-88
2023/02/11 10:57:50;;;;;;;6.35;1.10;;;;;;;9.30;100.00;102389.25;5023682;28;20076;-88
2023/02/11 11:00:21;;;;;;;3.90;0.90;;;;;;;9.32;100.00;102397.91;5031526;28;20307;-87
2023/02/11 11:02:57;;;;;;;11.00;1.20;;;;;;;9.34;100.00;102398.66;5010215;28;20113;-88
2023/02/11 11:05:36;;;;;;;5.88;0.90;;;;;;;9.35;100.00;102394.25;5032521;28;20389;-88
2023/02/11 11:08:06;;;;;;;9.25;1.10;;;;;;;9.36;100.00;102391.53;5034013;28;20448;-88
2023/02/11 11:10:43;;;;;;;4.05;1.00;;;;;;;9.44;100.00;102399.00;5024527;28;20041;-88
2023/02/11 11:13:27;;;;;;;5.38;0.95;;;;;;;9.49;100.00;102394.28;5012784;28;20048;-87
2023/02/11 11:16:13;;;;;;;4.30;0.70;;;;;;;9.52;100.00;102393.28;5045809;28;21352;-88
2023/02/11 11:18:42;;;;;;;3.30;0.80;;;;;;;9.51;100.00;102402.13;5013815;28;20037;-87
2023/02/11 11:21:24;;;;;;;14.15;2.38;;;;;;;9.55;100.00;102407.16;5018965;28;20158;-87
2023/02/11 11:23:57;;;;;;;3.25;0.80;;;;;;;9.57;100.00;102414.13;5022941;28;20048;-87
2023/02/11 11:26:40;;;;;;;3.40;0.95;;;;;;;9.54;100.00;102421.28;5028985;28;20658;-87
2023/02/11 11:29:23;;;;;;;7.85;0.85;;;;;;;9.54;100.00;102412.50;5016051;28;20036;-87
2023/02/11 11:32:03;;;;;;;8.25;0.93;;;;;;;9.52;100.00;102419.69;5047531;28;20035;-87
2023/02/11 11:34:32;;;;;;;6.68;0.98;;;;;;;9.50;100.00;102425.03;5029970;28;20032;-87
2023/02/11 11:37:00;;;;;;;5.07;0.90;;;;;;;9.50;100.00;102418.91;5030095;28;20024;-88
2023/02/11 11:39:33;;;;;;;6.45;0.70;;;;;;;9.54;100.00;102421.28;5031624;28;20033;-80
2023/02/11 11:42:02;;;;;;;7.53;1.00;;;;;;;9.54;100.00;102413.34;5015477;28;20119;-80